createdAt,value
2023-05-20T00:00:53.516Z,101805.28
2023-05-20T00:03:20.881Z,101807.28
2023-05-20T00:05:48.149Z,101800.41
2023-05-20T00:08:15.749Z,101806.75
2023-05-20T00:10:42.668Z,101807.38
2023-05-20T00:13:09.598Z,101810.13
2023-05-20T00:15:37.066Z,101802.03
2023-05-20T00:18:04.812Z,101793.50
2023-05-20T00:20:32.749Z,101798.75
2023-05-20T00:22:59.889Z,101795.50
2023-05-20T00:25:27.020Z,101799.94
2023-05-20T00:27:53.935Z,101797.13
2023-05-20T00:30:21.278Z,101796.59
2023-05-20T00:32:48.388Z,101801.84
2023-05-20T00:35:15.616Z,101797.38
2023-05-20T00:37:42.967Z,101802.00
2023-05-20T00:40:10.203Z,101799.88
2023-05-20T00:42:37.152Z,101792.44
2023-05-20T00:45:04.414Z,101795.03
2023-05-20T00:47:33.692Z,101800.53
2023-05-20T00:50:00.936Z,101802.75
2023-05-20T00:52:30.637Z,101795.28
2023-05-20T00:54:58.925Z,101793.66
2023-05-20T00:57:26.399Z,101807.69
2023-05-20T00:59:53.766Z,101794.75
2023-05-20T01:02:21.100Z,101789.44
2023-05-20T01:04:48.077Z,101795.88
2023-05-20T01:07:18.622Z,101786.44
2023-05-20T01:09:45.908Z,101787.34
2023-05-20T01:12:26.515Z,101783.41
2023-05-20T01:15:00.678Z,101783.50
2023-05-20T01:17:31.477Z,101776.28
2023-05-20T01:20:00.339Z,101778.00
2023-05-20T01:22:28.217Z,101778.00
2023-05-20T01:24:57.536Z,101780.44
2023-05-20T01:27:26.815Z,101784.13
2023-05-20T01:29:53.716Z,101783.03
2023-05-20T01:32:23.418Z,101771.44
2023-05-20T01:34:51.738Z,101782.34
2023-05-20T01:37:19.927Z,101781.53
2023-05-20T01:39:47.985Z,101778.88
2023-05-20T01:42:15.736Z,101776.94
2023-05-20T01:44:42.643Z,101777.88
2023-05-20T01:47:09.552Z,101777.09
2023-05-20T01:49:36.525Z,101781.84
2023-05-20T01:52:04.104Z,101765.19
2023-05-20T01:54:31.289Z,101768.94
2023-05-20T01:56:58.812Z,101770.81
2023-05-20T01:59:25.805Z,101772.25
2023-05-20T02:01:52.905Z,101770.91
2023-05-20T02:04:20.168Z,101763.63
2023-05-20T02:06:47.137Z,101765.28
2023-05-20T02:09:15.323Z,101755.78
2023-05-20T02:11:42.249Z,101764.09
2023-05-20T02:14:09.147Z,101761.19
2023-05-20T02:16:38.874Z,101764.56
2023-05-20T02:19:05.957Z,101755.53
2023-05-20T02:21:32.978Z,101760.16
2023-05-20T02:24:00.132Z,101754.38
2023-05-20T02:26:29.128Z,101758.69
2023-05-20T02:28:56.073Z,101758.56
2023-05-20T02:31:23.194Z,101758.44
2023-05-20T02:33:50.127Z,101759.19
2023-05-20T02:36:17.583Z,101765.25
2023-05-20T02:38:45.035Z,101759.53
2023-05-20T02:41:11.941Z,101758.59
2023-05-20T02:43:39.523Z,101763.38
2023-05-20T02:46:07.107Z,101771.13
2023-05-20T02:48:33.962Z,101762.53
2023-05-20T02:51:01.150Z,101768.47
2023-05-20T02:53:28.020Z,101766.03
2023-05-20T02:55:55.554Z,101761.22
2023-05-20T02:58:26.590Z,101766.16
2023-05-20T03:00:53.911Z,101768.22
2023-05-20T03:03:20.905Z,101766.47
2023-05-20T03:05:47.871Z,101769.97
2023-05-20T03:08:15.307Z,101763.66
2023-05-20T03:10:42.277Z,101766.31
2023-05-20T03:13:10.285Z,101771.03
2023-05-20T03:15:40.017Z,101778.09
2023-05-20T03:18:08.698Z,101784.78
2023-05-20T03:20:40.314Z,101787.59
2023-05-20T03:23:08.517Z,101788.66
2023-05-20T03:25:37.678Z,101792.97
2023-05-20T03:28:05.865Z,101785.13
2023-05-20T03:30:35.418Z,101793.44
2023-05-20T03:33:03.393Z,101798.06
2023-05-20T03:35:30.439Z,101790.72
2023-05-20T03:37:58.969Z,101796.81
2023-05-20T03:40:26.269Z,101798.88
2023-05-20T03:42:53.534Z,101798.41
2023-05-20T03:45:23.211Z,101794.84
2023-05-20T03:48:08.483Z,101797.50
2023-05-20T03:50:36.170Z,101799.56
2023-05-20T03:53:03.274Z,101803.91
2023-05-20T03:55:36.983Z,101808.91
2023-05-20T03:58:04.298Z,101800.16
2023-05-20T04:00:32.512Z,101806.16
2023-05-20T04:02:59.949Z,101796.50
2023-05-20T04:05:27.239Z,101795.09
2023-05-20T04:07:57.708Z,101802.59
2023-05-20T04:10:25.444Z,101796.97
2023-05-20T04:12:54.487Z,101795.53
2023-05-20T04:15:24.153Z,101792.72
2023-05-20T04:17:56.790Z,101792.06
2023-05-20T04:20:24.681Z,101798.81
2023-05-20T04:22:55.555Z,101796.03
2023-05-20T04:25:23.044Z,101796.81
2023-05-20T04:27:51.444Z,101800.34
2023-05-20T04:30:18.959Z,101798.88
2023-05-20T04:32:46.200Z,101792.31
2023-05-20T04:35:14.081Z,101788.88
2023-05-20T04:37:48.047Z,101788.88
2023-05-20T04:40:15.269Z,101787.94
2023-05-20T04:42:43.917Z,101791.47
2023-05-20T04:45:12.720Z,101796.16
2023-05-20T04:47:42.171Z,101797.38
2023-05-20T04:50:16.661Z,101796.63
2023-05-20T04:52:43.984Z,101794.50
2023-05-20T04:55:12.212Z,101799.09
2023-05-20T04:57:42.625Z,101792.47
2023-05-20T05:00:11.011Z,101795.69
2023-05-20T05:02:38.224Z,101797.06
2023-05-20T05:05:06.276Z,101790.53
2023-05-20T05:07:33.762Z,101797.38
2023-05-20T05:10:01.519Z,101789.06
2023-05-20T05:12:32.471Z,101795.44
2023-05-20T05:14:59.764Z,101797.59
2023-05-20T05:17:29.989Z,101796.16
2023-05-20T05:19:58.548Z,101791.91
2023-05-20T05:22:27.848Z,101790.72
2023-05-20T05:24:56.220Z,101793.28
2023-05-20T05:27:26.862Z,101793.22
2023-05-20T05:30:18.203Z,101784.66
2023-05-20T05:32:45.842Z,101788.41
2023-05-20T05:35:12.943Z,101783.94
2023-05-20T05:44:00.447Z,101787.97
2023-05-20T05:46:28.668Z,101780.06
2023-05-20T05:48:56.098Z,101790.28
2023-05-20T05:51:25.350Z,101798.91
2023-05-20T05:53:53.520Z,101788.28
2023-05-20T05:56:22.026Z,101792.59
2023-05-20T05:58:49.416Z,101776.31
2023-05-20T06:01:18.950Z,101769.72
2023-05-20T06:03:46.579Z,101774.13
2023-05-20T06:06:15.339Z,101767.56
2023-05-20T06:08:42.351Z,101771.69
2023-05-20T06:11:11.202Z,101770.41
2023-05-20T06:13:38.396Z,101768.50
2023-05-20T06:16:05.545Z,101772.53
2023-05-20T06:18:35.764Z,101764.56
2023-05-20T06:21:06.376Z,101767.22
2023-05-20T06:23:33.753Z,101767.94
2023-05-20T06:26:04.454Z,101765.41
2023-05-20T06:28:32.114Z,101766.69
2023-05-20T06:30:59.278Z,101766.56
2023-05-20T06:33:29.074Z,101766.03
2023-05-20T06:36:02.942Z,101758.69
2023-05-20T06:38:31.076Z,101768.63
2023-05-20T06:40:59.954Z,101760.72
2023-05-20T06:43:31.995Z,101766.69
2023-05-20T06:46:09.260Z,101759.16
2023-05-20T06:48:44.399Z,101750.06
2023-05-20T06:51:11.735Z,101756.88
2023-05-20T06:53:39.370Z,101758.53
2023-05-20T06:56:06.841Z,101753.59
2023-05-20T06:58:33.796Z,101757.47
2023-05-20T07:01:01.069Z,101755.63
2023-05-20T07:03:28.774Z,101753.66
2023-05-20T07:05:55.773Z,101758.41
2023-05-20T07:08:24.147Z,101750.53
2023-05-20T07:10:51.222Z,101750.06
2023-05-20T07:16:35.466Z,101734.81
2023-05-20T07:19:03.418Z,101731.03
2023-05-20T07:21:30.591Z,101736.22
2023-05-20T07:24:06.053Z,101738.53
2023-05-20T07:26:36.509Z,101737.88
2023-05-20T07:29:04.738Z,101742.25
2023-05-20T07:31:32.147Z,101746.50
2023-05-20T07:33:59.858Z,101739.50
2023-05-20T07:36:28.507Z,101745.91
2023-05-20T07:39:03.991Z,101749.59
2023-05-20T07:41:35.641Z,101756.81
2023-05-20T07:44:04.796Z,101756.72
2023-05-20T07:46:33.436Z,101744.41
2023-05-20T07:49:00.705Z,101751.56
2023-05-20T07:51:27.777Z,101748.94
2023-05-20T07:53:54.792Z,101747.19
2023-05-20T07:56:22.383Z,101734.91
2023-05-20T07:58:54.512Z,101737.56
2023-05-20T08:01:22.953Z,101736.88
2023-05-20T08:03:50.365Z,101732.16
2023-05-20T08:06:20.919Z,101732.84
2023-05-20T08:08:48.527Z,101741.66
2023-05-20T08:11:24.220Z,101734.38
2023-05-20T08:13:52.089Z,101728.47
2023-05-20T08:16:19.228Z,101727.34
2023-05-20T08:18:46.316Z,101723.50
2023-05-20T08:21:14.364Z,101726.38
2023-05-20T08:23:41.625Z,101718.28
2023-05-20T08:26:08.593Z,101719.63
2023-05-20T08:28:38.498Z,101714.56
2023-05-20T08:31:05.569Z,101705.38
2023-05-20T08:33:33.177Z,101707.22
2023-05-20T08:36:00.201Z,101696.69
2023-05-20T08:38:27.185Z,101705.78
2023-05-20T08:40:55.898Z,101696.66
2023-05-20T08:43:24.106Z,101698.97
2023-05-20T08:45:52.963Z,101699.19
2023-05-20T08:48:23.212Z,101700.63
2023-05-20T08:50:54.075Z,101697.66
2023-05-20T08:53:22.500Z,101697.66
2023-05-20T08:55:57.518Z,101691.63
2023-05-20T08:58:26.088Z,101689.91
2023-05-20T09:00:55.967Z,101692.06
2023-05-20T09:03:24.240Z,101686.75
2023-05-20T09:05:51.461Z,101692.88
2023-05-20T09:08:18.481Z,101695.69
2023-05-20T09:10:45.417Z,101687.72
2023-05-20T09:13:12.476Z,101692.19
2023-05-20T09:15:39.677Z,101690.81
2023-05-20T09:18:08.166Z,101685.22
2023-05-20T09:20:37.661Z,101682.53
2023-05-20T09:23:06.712Z,101687.91
2023-05-20T09:25:34.697Z,101698.44
2023-05-20T09:28:06.459Z,101686.00
2023-05-20T09:30:34.107Z,101685.22
2023-05-20T09:33:01.824Z,101688.91
2023-05-20T09:35:30.116Z,101690.94
2023-05-20T09:37:58.472Z,101683.56
2023-05-20T09:40:28.199Z,101691.31
2023-05-20T09:42:57.138Z,101692.88
2023-05-20T09:45:25.074Z,101680.34
2023-05-20T09:47:53.557Z,101669.63
2023-05-20T09:50:21.931Z,101665.75
2023-05-20T09:52:50.094Z,101663.75
2023-05-20T09:55:18.152Z,101673.69
2023-05-20T09:57:46.155Z,101671.97
2023-05-20T10:00:17.695Z,101678.50
2023-05-20T10:02:48.193Z,101674.00
2023-05-20T10:05:20.660Z,101684.50
2023-05-20T10:08:29.578Z,101685.16
2023-05-20T10:11:19.108Z,101688.44
2023-05-20T10:13:55.066Z,101683.53
2023-05-20T10:16:33.805Z,101682.53
2023-05-20T10:22:04.385Z,101684.94
2023-05-20T10:24:32.785Z,101678.91
2023-05-20T10:27:03.110Z,101677.84
2023-05-20T10:29:30.251Z,101675.50
2023-05-20T10:31:57.504Z,101677.00
2023-05-20T10:34:24.774Z,101666.31
2023-05-20T10:36:55.028Z,101670.00
2023-05-20T10:39:29.788Z,101663.44
2023-05-20T10:42:10.474Z,101657.88
2023-05-20T10:44:44.020Z,101654.75
2023-05-20T10:49:45.206Z,101649.63
2023-05-20T10:52:13.607Z,101657.88
2023-05-20T10:54:45.656Z,101649.94
2023-05-20T10:57:17.399Z,101656.13
2023-05-20T10:59:44.760Z,101650.63
2023-05-20T11:02:16.994Z,101643.06
2023-05-20T11:04:45.027Z,101642.78
2023-05-20T11:07:12.021Z,101628.50
2023-05-20T11:09:41.513Z,101640.09
2023-05-20T11:18:37.705Z,101609.88
2023-05-20T11:24:28.702Z,101612.94
2023-05-20T11:27:01.434Z,101614.97
2023-05-20T11:29:32.676Z,101604.47
2023-05-20T11:32:00.422Z,101608.41
2023-05-20T11:34:34.468Z,101605.38
2023-05-20T11:37:01.759Z,101605.88
2023-05-20T11:39:32.072Z,101603.31
2023-05-20T11:41:59.489Z,101612.97
2023-05-20T11:44:26.663Z,101626.94
2023-05-20T11:47:00.344Z,101613.13
2023-05-20T11:49:27.332Z,101604.22
2023-05-20T11:51:54.319Z,101602.31
2023-05-20T11:54:22.795Z,101610.16
2023-05-20T11:56:50.170Z,101606.50
2023-05-20T11:59:17.064Z,101608.19
2023-05-20T12:01:44.651Z,101618.16
2023-05-20T12:04:14.163Z,101615.44
2023-05-20T12:06:43.189Z,101612.41
2023-05-20T12:09:10.803Z,101607.03
2023-05-20T12:11:40.891Z,101603.00
2023-05-20T12:14:08.820Z,101599.63
2023-05-20T12:16:36.690Z,101593.41
2023-05-20T12:19:04.559Z,101593.81
2023-05-20T12:21:32.174Z,101598.44
2023-05-20T12:23:59.870Z,101587.69
2023-05-20T12:26:27.863Z,101581.94
2023-05-20T12:28:55.605Z,101569.34
2023-05-20T12:31:22.573Z,101571.31
2023-05-20T12:33:49.747Z,101567.91
2023-05-20T12:36:16.677Z,101552.31
2023-05-20T12:38:43.660Z,101565.91
2023-05-20T12:41:10.706Z,101558.38
2023-05-20T12:43:37.874Z,101562.66
2023-05-20T12:46:05.248Z,101547.59
2023-05-20T12:48:32.238Z,101538.00
2023-05-20T12:50:59.179Z,101541.88
2023-05-20T12:53:26.412Z,101540.53
2023-05-20T12:55:53.370Z,101532.13
2023-05-20T12:58:20.287Z,101522.09
2023-05-20T13:00:47.335Z,101522.69
2023-05-20T13:03:14.605Z,101526.13
2023-05-20T13:05:41.754Z,101526.25
2023-05-20T13:08:10.630Z,101517.28
2023-05-20T13:10:38.107Z,101525.31
2023-05-20T13:13:05.255Z,101510.31
2023-05-20T13:15:33.690Z,101503.84
2023-05-20T13:18:01.838Z,101496.34
2023-05-20T13:20:30.140Z,101501.69
2023-05-20T13:22:57.332Z,101499.22
2023-05-20T13:25:24.317Z,101488.84
2023-05-20T13:27:51.290Z,101481.63
2023-05-20T13:30:18.262Z,101478.66
2023-05-20T13:32:46.441Z,101477.91
2023-05-20T13:35:13.496Z,101467.97
2023-05-20T13:37:40.394Z,101467.38
2023-05-20T13:40:07.897Z,101473.94
2023-05-20T13:42:34.876Z,101468.84
2023-05-20T13:45:01.808Z,101472.28
2023-05-20T13:47:29.660Z,101462.50
2023-05-20T13:49:56.740Z,101466.63
2023-05-20T13:52:23.719Z,101457.75
2023-05-20T13:54:50.689Z,101457.47
2023-05-20T13:57:17.632Z,101458.47
2023-05-20T13:59:44.490Z,101453.63
2023-05-20T14:02:11.833Z,101446.38
2023-05-20T14:04:40.250Z,101448.78
2023-05-20T14:07:09.591Z,101457.44
2023-05-20T14:09:37.042Z,101455.44
2023-05-20T14:12:04.836Z,101451.59
2023-05-20T14:14:31.901Z,101454.75
2023-05-20T14:17:01.546Z,101451.66
2023-05-20T14:19:29.143Z,101453.09
2023-05-20T14:21:56.128Z,101445.09
2023-05-20T14:24:23.933Z,101429.47
2023-05-20T14:26:50.939Z,101440.44
2023-05-20T14:29:17.897Z,101445.25
2023-05-20T14:31:45.180Z,101436.91
2023-05-20T14:34:12.245Z,101434.13
2023-05-20T14:36:39.416Z,101430.25
2023-05-20T14:39:06.239Z,101416.91
2023-05-20T14:41:33.036Z,101420.38
2023-05-20T14:44:00.242Z,101412.38
2023-05-20T14:46:27.276Z,101421.22
2023-05-20T14:48:54.243Z,101425.78
2023-05-20T14:51:21.076Z,101417.03
2023-05-20T14:53:47.881Z,101416.44
2023-05-20T14:56:14.745Z,101420.69
2023-05-20T14:58:41.716Z,101416.16
2023-05-20T15:01:08.682Z,101414.44
2023-05-20T15:03:35.690Z,101414.34
2023-05-20T15:06:02.777Z,101411.16
2023-05-20T15:08:29.616Z,101404.75
2023-05-20T15:10:56.846Z,101410.09
2023-05-20T15:13:23.710Z,101402.06
2023-05-20T15:15:50.520Z,101400.25
2023-05-20T15:18:17.457Z,101404.28
2023-05-20T15:20:44.880Z,101400.41
2023-05-20T15:23:12.290Z,101392.41
2023-05-20T15:25:39.095Z,101396.84
2023-05-20T15:28:06.073Z,101392.97
2023-05-20T15:30:33.224Z,101389.25
2023-05-20T15:33:00.486Z,101386.66
2023-05-20T15:35:27.413Z,101375.53
2023-05-20T15:37:54.873Z,101388.47
2023-05-20T15:40:22.322Z,101378.81
2023-05-20T15:42:49.392Z,101380.13
2023-05-20T15:45:16.406Z,101381.31
2023-05-20T15:47:43.510Z,101379.31
2023-05-20T15:50:11.501Z,101372.91
2023-05-20T15:52:38.919Z,101376.59
2023-05-20T15:55:06.678Z,101375.38
2023-05-20T15:57:33.543Z,101371.91
2023-05-20T16:00:00.843Z,101360.31
2023-05-20T16:02:27.903Z,101369.72
2023-05-20T16:04:54.907Z,101353.75
2023-05-20T16:07:21.870Z,101363.22
2023-05-20T16:09:48.759Z,101356.03
2023-05-20T16:12:17.115Z,101348.09
2023-05-20T16:14:44.938Z,101351.28
2023-05-20T16:17:12.380Z,101349.53
2023-05-20T16:19:39.316Z,101346.63
2023-05-20T16:22:06.194Z,101344.66
2023-05-20T16:24:33.009Z,101341.84
2023-05-20T16:26:59.870Z,101325.47
2023-05-20T16:29:26.686Z,101326.16
2023-05-20T16:31:53.623Z,101325.75
2023-05-20T16:34:20.528Z,101324.72
2023-05-20T16:36:47.448Z,101318.78
2023-05-20T16:39:15.300Z,101309.53
2023-05-20T16:41:42.964Z,101307.44
2023-05-20T16:44:10.539Z,101306.56
2023-05-20T16:46:37.370Z,101310.22
2023-05-20T16:49:04.186Z,101300.88
2023-05-20T16:51:32.394Z,101311.56
2023-05-20T16:53:59.193Z,101302.97
2023-05-20T16:56:26.433Z,101296.59
2023-05-20T16:58:53.459Z,101298.44
2023-05-20T17:01:21.519Z,101303.63
2023-05-20T17:03:48.820Z,101305.88
2023-05-20T17:06:15.747Z,101300.63
2023-05-20T17:08:42.596Z,101303.34
2023-05-20T17:11:09.656Z,101295.16
2023-05-20T17:13:36.519Z,101294.84
2023-05-20T17:16:03.724Z,101291.84
2023-05-20T17:18:31.753Z,101295.31
2023-05-20T17:20:58.733Z,101299.00
2023-05-20T17:23:25.778Z,101289.00
2023-05-20T17:25:52.905Z,101283.16
2023-05-20T17:28:19.852Z,101286.84
2023-05-20T17:30:46.787Z,101279.53
2023-05-20T17:33:14.251Z,101279.38
2023-05-20T17:35:41.535Z,101270.34
2023-05-20T17:38:08.437Z,101275.16
2023-05-20T17:40:35.492Z,101273.38
2023-05-20T17:43:02.565Z,101277.09
2023-05-20T17:45:29.437Z,101276.41
2023-05-20T17:47:56.387Z,101275.91
2023-05-20T17:50:23.348Z,101285.72
2023-05-20T17:52:50.224Z,101276.91
2023-05-20T17:55:18.677Z,101276.34
2023-05-20T17:57:45.704Z,101273.56
2023-05-20T18:00:13.832Z,101269.75
2023-05-20T18:02:46.443Z,101274.34
2023-05-20T18:05:14.314Z,101280.50
2023-05-20T18:07:41.605Z,101271.13
2023-05-20T18:10:09.172Z,101273.28
2023-05-20T18:12:36.341Z,101268.44
2023-05-20T18:15:03.885Z,101268.44
2023-05-20T18:17:32.692Z,101265.25
2023-05-20T18:19:59.686Z,101258.91
2023-05-20T18:22:35.557Z,101266.56
2023-05-20T18:25:08.999Z,101261.47
2023-05-20T18:27:35.985Z,101266.72
2023-05-20T18:30:02.991Z,101269.00
2023-05-20T18:32:31.461Z,101276.53
2023-05-20T18:34:58.594Z,101273.69
2023-05-20T18:37:27.597Z,101277.66
2023-05-20T18:39:54.846Z,101276.53
2023-05-20T18:42:21.760Z,101280.94
2023-05-20T18:44:48.652Z,101283.06
2023-05-20T18:47:17.084Z,101282.34
2023-05-20T18:49:44.112Z,101292.69
2023-05-20T18:52:11.115Z,101293.81
2023-05-20T18:54:38.263Z,101282.19
2023-05-20T18:57:05.462Z,101291.41
2023-05-20T18:59:32.311Z,101294.94
2023-05-20T19:01:59.295Z,101290.81
2023-05-20T19:04:26.698Z,101291.84
2023-05-20T19:06:53.571Z,101297.03
2023-05-20T19:09:20.622Z,101303.16
2023-05-20T19:11:47.468Z,101300.56
2023-05-20T19:14:14.351Z,101306.97
2023-05-20T19:16:41.351Z,101309.22
2023-05-20T19:19:08.741Z,101312.03
2023-05-20T19:21:35.607Z,101305.19
2023-05-20T19:24:02.530Z,101315.53
2023-05-20T19:26:29.397Z,101310.41
2023-05-20T19:28:57.224Z,101316.47
2023-05-20T19:31:24.088Z,101314.06
2023-05-20T19:33:51.312Z,101308.94
2023-05-20T19:36:18.470Z,101314.59
2023-05-20T19:38:45.356Z,101316.97
2023-05-20T19:41:12.913Z,101307.00
2023-05-20T19:43:40.093Z,101309.00
2023-05-20T19:46:07.073Z,101313.94
2023-05-20T19:48:34.121Z,101312.50
2023-05-20T19:51:01.697Z,101307.91
2023-05-20T19:53:28.495Z,101299.84
2023-05-20T19:55:55.361Z,101308.44
2023-05-20T19:58:22.785Z,101308.44
2023-05-20T20:00:49.627Z,101306.94
2023-05-20T20:03:16.673Z,101302.41
2023-05-20T20:05:43.633Z,101312.84
2023-05-20T20:08:11.116Z,101311.13
2023-05-20T20:10:38.122Z,101317.94
2023-05-20T20:13:05.000Z,101312.69
2023-05-20T20:15:32.297Z,101310.88
2023-05-20T20:17:59.761Z,101312.69
2023-05-20T20:20:27.254Z,101310.97
2023-05-20T20:22:54.343Z,101310.28
2023-05-20T20:25:21.253Z,101308.44
2023-05-20T20:27:48.739Z,101301.59
2023-05-20T20:30:16.144Z,101311.38
2023-05-20T20:32:43.219Z,101308.72
2023-05-20T20:35:11.132Z,101314.69
2023-05-20T20:37:38.593Z,101314.97
2023-05-20T20:40:13.941Z,101321.19
2023-05-20T20:42:42.012Z,101316.78
2023-05-20T20:45:09.462Z,101309.13
2023-05-20T20:47:38.813Z,101310.56
2023-05-20T20:50:06.511Z,101312.13
2023-05-20T20:52:33.779Z,101306.63
2023-05-20T20:55:00.758Z,101306.91
2023-05-20T20:57:29.798Z,101307.03
2023-05-20T20:59:58.627Z,101308.72
2023-05-20T21:02:25.615Z,101302.50
2023-05-20T21:04:52.545Z,101307.41
2023-05-20T21:07:19.700Z,101308.97
2023-05-20T21:09:46.629Z,101308.50
2023-05-20T21:12:13.575Z,101305.97
2023-05-20T21:14:40.498Z,101309.50
2023-05-20T21:17:07.529Z,101310.59
2023-05-20T21:19:34.979Z,101304.66
2023-05-20T21:22:01.970Z,101304.66
2023-05-20T21:24:28.882Z,101297.56
2023-05-20T21:26:55.901Z,101288.75
2023-05-20T21:29:22.837Z,101290.59
2023-05-20T21:31:50.507Z,101279.84
2023-05-20T21:34:17.354Z,101270.34
2023-05-20T21:36:44.402Z,101276.56
2023-05-20T21:39:11.577Z,101265.94
2023-05-20T21:41:38.476Z,101268.63
2023-05-20T21:44:05.616Z,101269.75
2023-05-20T21:46:32.499Z,101257.41
2023-05-20T21:48:59.351Z,101262.91
2023-05-20T21:51:26.231Z,101256.69
2023-05-20T21:53:53.299Z,101267.81
2023-05-20T21:56:20.185Z,101262.59
2023-05-20T21:58:47.038Z,101255.75
2023-05-20T22:01:13.912Z,101252.59
2023-05-20T22:03:48.796Z,101256.25
2023-05-20T22:06:17.372Z,101257.97
2023-05-20T22:08:44.513Z,101256.75
2023-05-20T22:11:12.029Z,101246.78
2023-05-20T22:13:43.462Z,101249.09
2023-05-20T22:16:10.520Z,101244.56
2023-05-20T22:18:38.639Z,101246.78
2023-05-20T22:21:06.188Z,101249.22
2023-05-20T22:23:33.036Z,101246.22
2023-05-20T22:26:00.877Z,101237.41
2023-05-20T22:28:28.039Z,101240.22
2023-05-20T22:30:54.975Z,101236.94
2023-05-20T22:33:23.122Z,101244.41
2023-05-20T22:35:50.294Z,101237.31
2023-05-20T22:38:17.286Z,101238.28
2023-05-20T22:40:44.257Z,101238.69
2023-05-20T22:43:13.444Z,101236.97
2023-05-20T22:45:40.463Z,101230.25
2023-05-20T22:48:07.903Z,101233.81
2023-05-20T22:50:37.871Z,101226.03
2023-05-20T22:53:04.800Z,101223.44
2023-05-20T22:55:31.677Z,101227.97
2023-05-20T22:57:58.528Z,101222.13
2023-05-20T23:00:25.617Z,101228.22
2023-05-20T23:02:52.711Z,101226.25
2023-05-20T23:05:19.598Z,101221.00
2023-05-20T23:07:46.590Z,101220.31
2023-05-20T23:10:13.493Z,101225.69
2023-05-20T23:12:40.396Z,101218.72
2023-05-20T23:15:08.338Z,101224.94
2023-05-20T23:17:35.304Z,101216.75
2023-05-20T23:20:05.701Z,101215.25
2023-05-20T23:22:33.096Z,101206.47
2023-05-20T23:24:59.925Z,101204.78
2023-05-20T23:27:26.836Z,101201.34
2023-05-20T23:29:53.625Z,101199.16
2023-05-20T23:32:20.672Z,101195.78
2023-05-20T23:34:47.542Z,101200.41
2023-05-20T23:37:14.456Z,101199.41
2023-05-20T23:39:41.701Z,101198.09
2023-05-20T23:42:08.576Z,101191.88
2023-05-20T23:44:35.643Z,101193.97
2023-05-20T23:47:03.961Z,101194.09
2023-05-20T23:49:32.212Z,101194.34
2023-05-20T23:51:59.099Z,101191.78
2023-05-20T23:54:25.929Z,101192.16
2023-05-20T23:56:52.927Z,101193.25
2023-05-20T23:59:19.816Z,101194.09
